createdAt,value
2023-05-21T00:00:00.032Z,17.70
2023-05-21T00:04:03.596Z,17.70
2023-05-21T00:08:07.086Z,17.60
2023-05-21T00:12:10.234Z,17.60
2023-05-21T00:16:13.223Z,17.50
2023-05-21T00:20:16.434Z,17.50
2023-05-21T00:24:19.326Z,17.50
2023-05-21T00:28:22.305Z,17.60
2023-05-21T00:32:26.339Z,17.60
2023-05-21T00:36:30.924Z,17.50
2023-05-21T00:40:35.446Z,17.50
2023-05-21T00:44:38.709Z,17.60
2023-05-21T00:48:41.707Z,17.50
2023-05-21T00:52:45.866Z,17.50
2023-05-21T00:56:49.246Z,17.60
2023-05-21T01:00:55.909Z,17.60
2023-05-21T01:05:01.500Z,17.60
2023-05-21T01:09:06.506Z,17.60
2023-05-21T01:13:10.081Z,17.60
2023-05-21T01:17:14.709Z,17.60
2023-05-21T01:21:19.642Z,17.60
2023-05-21T01:25:25.703Z,17.70
2023-05-21T01:29:28.619Z,17.70
2023-05-21T01:33:45.266Z,17.80
2023-05-21T01:37:48.460Z,17.80
2023-05-21T01:41:54.870Z,17.90
2023-05-21T01:46:01.879Z,17.90
2023-05-21T01:50:06.548Z,17.90
2023-05-21T01:54:10.419Z,18.00
2023-05-21T01:58:13.240Z,18.00
2023-05-21T02:02:16.757Z,18.00
2023-05-21T02:06:19.741Z,17.90
2023-05-21T02:10:22.720Z,17.80
2023-05-21T02:14:26.475Z,17.80
2023-05-21T02:18:29.546Z,17.70
2023-05-21T02:22:32.659Z,17.80
2023-05-21T02:26:36.003Z,17.70
2023-05-21T02:30:38.858Z,17.70
2023-05-21T02:34:43.997Z,17.70
2023-05-21T02:38:47.757Z,17.80
2023-05-21T02:42:50.758Z,17.80
2023-05-21T02:46:56.362Z,17.80
2023-05-21T02:50:59.744Z,17.80
2023-05-21T02:55:02.695Z,17.80
2023-05-21T02:59:05.662Z,17.80
2023-05-21T03:03:08.760Z,17.90
2023-05-21T03:07:18.082Z,17.80
2023-05-21T03:11:22.725Z,17.80
2023-05-21T03:15:26.125Z,17.80
2023-05-21T03:19:30.905Z,17.90
2023-05-21T03:23:35.003Z,17.80
2023-05-21T03:27:39.230Z,17.80
2023-05-21T03:31:48.995Z,17.80
2023-05-21T03:35:51.943Z,17.80
2023-05-21T03:39:55.899Z,17.80
2023-05-21T03:43:58.868Z,17.70
2023-05-21T03:48:06.880Z,17.80
2023-05-21T03:52:09.946Z,17.80
2023-05-21T03:56:12.945Z,17.80
2023-05-21T04:00:17.195Z,17.80
2023-05-21T04:04:20.649Z,17.80
2023-05-21T04:08:24.294Z,17.90
2023-05-21T04:12:27.128Z,18.00
2023-05-21T04:16:30.181Z,18.00
2023-05-21T04:20:33.225Z,18.00
2023-05-21T04:24:38.240Z,18.00
2023-05-21T04:28:54.109Z,18.00
2023-05-21T04:32:58.108Z,18.00
2023-05-21T04:37:02.454Z,18.10
2023-05-21T04:41:07.111Z,18.10
2023-05-21T04:45:10.597Z,18.20
2023-05-21T04:49:15.793Z,18.20
2023-05-21T04:53:21.137Z,18.20
2023-05-21T04:57:28.261Z,18.30
2023-05-21T05:01:32.713Z,18.30
2023-05-21T05:05:37.879Z,18.40
2023-05-21T05:09:41.454Z,18.40
2023-05-21T05:13:44.764Z,18.40
2023-05-21T05:17:50.792Z,18.50
2023-05-21T05:21:54.134Z,18.60
2023-05-21T05:25:57.419Z,18.70
2023-05-21T05:30:00.447Z,18.80
2023-05-21T05:34:03.527Z,18.80
2023-05-21T05:38:09.091Z,18.90
2023-05-21T05:42:13.395Z,18.90
2023-05-21T05:46:16.790Z,19.00
2023-05-21T05:50:20.017Z,19.10
2023-05-21T05:54:25.699Z,19.10
2023-05-21T05:58:31.002Z,19.20
2023-05-21T06:02:45.942Z,19.40
2023-05-21T06:06:49.394Z,19.50
2023-05-21T06:10:52.598Z,19.50
2023-05-21T06:14:55.667Z,19.60
2023-05-21T06:18:58.980Z,19.70
2023-05-21T06:23:09.034Z,19.80
2023-05-21T06:27:12.650Z,19.80
2023-05-21T06:31:16.465Z,19.80
2023-05-21T06:35:20.682Z,19.90
2023-05-21T06:39:24.800Z,20.00
2023-05-21T06:43:28.940Z,20.00
2023-05-21T06:47:50.773Z,20.00
2023-05-21T06:51:53.979Z,20.00
2023-05-21T06:55:57.678Z,20.10
2023-05-21T07:00:12.449Z,20.10
2023-05-21T07:04:16.284Z,20.20
2023-05-21T07:08:20.545Z,20.20
2023-05-21T07:12:23.588Z,20.20
2023-05-21T07:16:27.120Z,20.20
2023-05-21T07:20:30.303Z,20.30
2023-05-21T07:24:37.288Z,20.50
2023-05-21T07:28:40.205Z,20.70
2023-05-21T07:32:43.335Z,21.20
2023-05-21T07:36:46.650Z,21.70
2023-05-21T07:40:49.644Z,22.00
2023-05-21T07:44:52.778Z,22.30
2023-05-21T07:48:56.052Z,22.50
2023-05-21T07:52:59.384Z,22.70
2023-05-21T07:57:03.066Z,22.90
2023-05-21T08:01:33.280Z,22.90
2023-05-21T08:05:37.006Z,23.10
2023-05-21T08:09:40.218Z,23.40
2023-05-21T08:13:44.346Z,23.60
2023-05-21T08:17:49.255Z,23.80
2023-05-21T08:21:53.059Z,24.00
2023-05-21T08:25:58.053Z,24.10
2023-05-21T08:30:01.492Z,24.20
2023-05-21T08:34:04.742Z,24.30
2023-05-21T08:38:19.325Z,24.50
2023-05-21T08:42:47.521Z,24.70
2023-05-21T08:46:59.378Z,24.80
2023-05-21T08:51:02.750Z,24.80
2023-05-21T08:55:10.705Z,24.90
2023-05-21T08:59:17.450Z,24.80
2023-05-21T09:03:22.716Z,24.80
2023-05-21T09:07:30.876Z,24.90
2023-05-21T09:11:51.974Z,25.00
2023-05-21T09:15:55.186Z,25.10
2023-05-21T09:20:17.558Z,25.10
2023-05-21T09:24:35.267Z,25.40
2023-05-21T09:28:45.415Z,25.40
2023-05-21T09:33:00.593Z,25.30
2023-05-21T09:37:06.548Z,25.50
2023-05-21T09:42:19.286Z,25.50
2023-05-21T09:46:44.137Z,25.50
2023-05-21T09:51:06.126Z,25.50
2023-05-21T10:01:55.768Z,25.10
2023-05-21T10:06:31.367Z,25.10
2023-05-21T10:10:36.279Z,25.00
2023-05-21T10:15:14.602Z,25.00
2023-05-21T10:19:40.778Z,25.10
2023-05-21T10:23:46.132Z,25.40
2023-05-21T10:27:49.987Z,25.70
2023-05-21T10:31:53.388Z,25.90
2023-05-21T10:35:59.685Z,26.00
2023-05-21T10:40:02.856Z,26.20
2023-05-21T10:44:18.149Z,26.00
2023-05-21T10:48:29.973Z,26.10
2023-05-21T10:52:43.408Z,26.10
2023-05-21T10:57:05.728Z,26.10
2023-05-21T11:01:09.531Z,26.20
2023-05-21T11:05:12.445Z,26.00
2023-05-21T11:09:17.441Z,26.00
2023-05-21T11:13:24.667Z,25.80
2023-05-21T11:17:42.325Z,26.00
2023-05-21T11:21:53.784Z,26.20
2023-05-21T11:26:03.948Z,26.40
2023-05-21T11:30:08.717Z,26.50
2023-05-21T11:34:32.032Z,26.60
2023-05-21T11:38:35.062Z,26.70
2023-05-21T11:42:42.556Z,26.60
2023-05-21T11:46:46.644Z,26.50
2023-05-21T11:50:50.561Z,26.60
2023-05-21T11:54:57.582Z,26.90
2023-05-21T11:59:02.943Z,27.00
2023-05-21T12:03:07.415Z,27.10
2023-05-21T12:07:13.348Z,27.00
2023-05-21T12:11:16.405Z,26.90
2023-05-21T12:15:20.232Z,26.90
2023-05-21T12:19:23.197Z,27.00
2023-05-21T12:23:26.194Z,27.10
2023-05-21T12:27:31.253Z,27.10
2023-05-21T12:31:46.764Z,27.30
2023-05-21T12:35:50.432Z,27.30
2023-05-21T12:40:11.687Z,27.20
2023-05-21T12:44:14.679Z,27.20
2023-05-21T12:48:17.952Z,27.40
2023-05-21T12:52:23.625Z,27.30
2023-05-21T12:56:26.954Z,27.30
2023-05-21T13:00:29.786Z,27.40
2023-05-21T13:04:38.932Z,27.50
2023-05-21T13:08:42.189Z,27.60
2023-05-21T13:12:45.618Z,27.60
2023-05-21T13:16:49.680Z,27.50
2023-05-21T13:20:52.806Z,27.50
2023-05-21T13:24:56.091Z,27.30
2023-05-21T13:28:58.935Z,27.20
2023-05-21T13:33:02.472Z,26.90
2023-05-21T13:37:05.417Z,26.90
2023-05-21T13:41:08.299Z,27.10
2023-05-21T13:45:12.550Z,27.10
2023-05-21T13:49:15.478Z,26.90
2023-05-21T13:53:18.700Z,27.00
2023-05-21T13:57:22.318Z,27.10
2023-05-21T14:01:25.158Z,27.20
2023-05-21T14:05:28.065Z,27.30
2023-05-21T14:09:31.537Z,27.40
2023-05-21T14:13:34.428Z,27.20
2023-05-21T14:17:40.618Z,27.10
2023-05-21T14:21:47.292Z,27.20
2023-05-21T14:25:50.421Z,27.50
2023-05-21T14:29:53.431Z,27.70
2023-05-21T14:33:56.677Z,27.60
2023-05-21T14:37:59.868Z,27.40
2023-05-21T14:42:06.522Z,27.50
2023-05-21T14:46:09.664Z,27.50
2023-05-21T14:50:15.094Z,27.40
2023-05-21T14:54:19.675Z,27.00
2023-05-21T14:58:22.695Z,26.60
2023-05-21T15:02:26.751Z,26.20
2023-05-21T15:06:30.393Z,26.00
2023-05-21T15:10:35.727Z,25.80
2023-05-21T15:14:39.042Z,25.70
2023-05-21T15:18:41.934Z,25.70
2023-05-21T15:22:46.665Z,26.10
2023-05-21T15:26:49.901Z,26.40
2023-05-21T15:30:55.237Z,26.60
2023-05-21T15:35:01.218Z,26.70
2023-05-21T15:39:06.397Z,26.90
2023-05-21T15:43:10.519Z,26.90
2023-05-21T15:47:13.469Z,27.00
2023-05-21T15:51:16.425Z,27.30
2023-05-21T15:55:19.838Z,27.80
2023-05-21T15:59:25.255Z,28.50
2023-05-21T16:03:28.439Z,29.40
2023-05-21T16:07:37.021Z,29.80
2023-05-21T16:11:42.094Z,29.90
2023-05-21T16:15:45.633Z,29.90
2023-05-21T16:26:10.308Z,30.40
2023-05-21T16:30:14.256Z,31.00
2023-05-21T16:34:17.358Z,31.10
2023-05-21T16:38:22.088Z,31.00
2023-05-21T16:42:30.533Z,30.80
2023-05-21T16:46:42.885Z,30.80
2023-05-21T16:50:47.252Z,30.70
2023-05-21T16:54:50.957Z,29.50
2023-05-21T16:58:53.739Z,28.30
2023-05-21T17:02:56.856Z,27.60
2023-05-21T17:06:59.706Z,26.90
2023-05-21T17:11:02.806Z,26.20
2023-05-21T17:15:06.615Z,25.60
2023-05-21T17:19:09.739Z,26.00
2023-05-21T17:23:12.981Z,25.60
2023-05-21T17:27:16.626Z,25.60
2023-05-21T17:31:19.512Z,25.60
2023-05-21T17:35:22.413Z,25.40
2023-05-21T17:39:25.450Z,25.20
2023-05-21T17:43:28.501Z,25.00
2023-05-21T17:47:33.011Z,25.00
2023-05-21T17:51:37.169Z,25.00
2023-05-21T17:55:40.620Z,25.10
2023-05-21T17:59:45.360Z,25.00
2023-05-21T18:03:48.297Z,24.70
2023-05-21T18:07:51.606Z,24.30
2023-05-21T18:11:55.015Z,24.00
2023-05-21T18:15:59.122Z,23.90
2023-05-21T18:20:04.064Z,23.60
2023-05-21T18:24:08.432Z,23.40
2023-05-21T18:28:11.218Z,23.20
2023-05-21T18:32:16.702Z,23.00
2023-05-21T18:36:19.591Z,22.90
2023-05-21T18:40:23.111Z,22.70
2023-05-21T18:44:27.366Z,22.50
2023-05-21T18:48:30.263Z,22.40
2023-05-21T18:52:33.011Z,22.30
2023-05-21T18:56:35.769Z,22.20
2023-05-21T19:00:39.754Z,22.10
2023-05-21T19:04:43.185Z,22.00
2023-05-21T19:08:46.444Z,22.00
2023-05-21T19:12:49.637Z,21.90
2023-05-21T19:16:53.304Z,21.80
2023-05-21T19:20:56.663Z,21.80
2023-05-21T19:25:00.801Z,21.70
2023-05-21T19:29:03.687Z,21.60
2023-05-21T19:33:08.510Z,21.60
2023-05-21T19:37:11.620Z,21.60
2023-05-21T19:41:19.649Z,21.60
2023-05-21T19:45:23.009Z,21.60
2023-05-21T19:49:25.930Z,21.60
2023-05-21T19:53:29.078Z,21.60
2023-05-21T19:57:32.708Z,21.60
2023-05-21T20:01:39.405Z,21.60
2023-05-21T20:05:42.523Z,21.50
2023-05-21T20:09:45.472Z,21.50
2023-05-21T20:13:50.269Z,21.50
2023-05-21T20:17:54.135Z,21.50
2023-05-21T20:21:56.909Z,21.30
2023-05-21T20:25:59.787Z,21.30
2023-05-21T20:30:02.775Z,21.20
2023-05-21T20:34:07.551Z,21.20
2023-05-21T20:38:10.505Z,21.10
2023-05-21T20:42:15.099Z,21.10
2023-05-21T20:46:18.608Z,21.00
2023-05-21T20:50:25.901Z,21.00
2023-05-21T20:54:30.712Z,21.00
2023-05-21T20:58:33.712Z,21.00
2023-05-21T21:02:41.524Z,20.90
2023-05-21T21:06:46.654Z,20.90
2023-05-21T21:10:50.278Z,20.90
2023-05-21T21:14:53.243Z,20.80
2023-05-21T21:18:56.271Z,20.70
2023-05-21T21:22:59.031Z,20.60
2023-05-21T21:27:02.297Z,20.60
2023-05-21T21:31:05.182Z,20.50
2023-05-21T21:35:08.393Z,20.50
2023-05-21T21:39:11.560Z,20.50
2023-05-21T21:43:14.393Z,20.40
2023-05-21T21:47:17.242Z,20.40
2023-05-21T21:51:23.205Z,20.30
2023-05-21T21:55:26.628Z,20.30
2023-05-21T21:59:29.447Z,20.20
2023-05-21T22:03:34.356Z,20.20
2023-05-21T22:07:38.836Z,20.20
2023-05-21T22:11:42.098Z,20.20
2023-05-21T22:15:44.946Z,20.10
2023-05-21T22:19:48.029Z,20.00
2023-05-21T22:23:50.886Z,20.00
2023-05-21T22:27:53.859Z,19.80
2023-05-21T22:31:56.759Z,19.70
2023-05-21T22:35:59.677Z,19.70
2023-05-21T22:40:02.463Z,19.60
2023-05-21T22:44:05.671Z,19.50
2023-05-21T22:48:09.837Z,19.50
2023-05-21T22:52:14.692Z,19.50
2023-05-21T22:56:17.743Z,19.50
2023-05-21T23:00:20.816Z,19.50
2023-05-21T23:04:35.597Z,19.50
2023-05-21T23:08:43.023Z,19.40
2023-05-21T23:12:45.936Z,19.40
2023-05-21T23:16:48.740Z,19.30
2023-05-21T23:20:52.124Z,19.10
2023-05-21T23:24:55.328Z,18.90
2023-05-21T23:28:58.258Z,18.80
2023-05-21T23:33:01.224Z,18.60
2023-05-21T23:37:04.168Z,18.50
2023-05-21T23:41:07.742Z,18.40
2023-05-21T23:45:10.983Z,18.30
2023-05-21T23:49:14.014Z,18.20
2023-05-21T23:53:17.358Z,18.30
2023-05-21T23:57:20.182Z,18.40
